sensor_id;sensor_type;location;lat;lon;timestamp;temperature;humidity
60473;DHT22;46318;52.716;6.444;2023-02-04T00:00:04;6.50;99.90
60473;DHT22;46318;52.716;6.444;2023-02-04T00:02:32;6.50;99.90
60473;DHT22;46318;52.716;6.444;2023-02-04T00:05:01;6.50;99.90
60473;DHT22;46318;52.716;6.444;2023-02-04T00:07:27;6.50;99.90
60473;DHT22;46318;52.716;6.444;2023-02-04T00:09:55;6.50;99.90
60473;DHT22;46318;52.716;6.444;2023-02-04T00:12:22;6.50;99.90
60473;DHT22;46318;52.716;6.444;2023-02-04T00:14:48;6.50;99.90
60473;DHT22;46318;52.716;6.444;2023-02-04T00:17:15;6.50;99.90
60473;DHT22;46318;52.716;6.444;2023-02-04T00:19:41;6.50;99.90
60473;DHT22;46318;52.716;6.444;2023-02-04T00:22:08;6.50;99.90
60473;DHT22;46318;52.716;6.444;2023-02-04T00:24:35;6.50;99.90
60473;DHT22;46318;52.716;6.444;2023-02-04T00:27:02;6.50;99.90
60473;DHT22;46318;52.716;6.444;2023-02-04T00:29:32;6.50;99.90
60473;DHT22;46318;52.716;6.444;2023-02-04T00:31:57;6.50;99.90
60473;DHT22;46318;52.716;6.444;2023-02-04T00:34:26;6.50;99.90
60473;DHT22;46318;52.716;6.444;2023-02-04T00:36:55;6.50;99.90
60473;DHT22;46318;52.716;6.444;2023-02-04T00:39:21;6.50;99.90
60473;DHT22;46318;52.716;6.444;2023-02-04T00:41:47;6.50;99.90
60473;DHT22;46318;52.716;6.444;2023-02-04T00:44:13;6.50;99.90
60473;DHT22;46318;52.716;6.444;2023-02-04T00:46:42;6.50;99.90
60473;DHT22;46318;52.716;6.444;2023-02-04T00:49:09;6.50;99.90
60473;DHT22;46318;52.716;6.444;2023-02-04T00:51:38;6.50;99.90
60473;DHT22;46318;52.716;6.444;2023-02-04T00:54:05;6.50;99.90
60473;DHT22;46318;52.716;6.444;2023-02-04T00:56:33;6.50;99.90
60473;DHT22;46318;52.716;6.444;2023-02-04T00:58:59;6.50;99.90
60473;DHT22;46318;52.716;6.444;2023-02-04T01:01:25;6.50;99.90
60473;DHT22;46318;52.716;6.444;2023-02-04T01:03:51;6.50;99.90
60473;DHT22;46318;52.716;6.444;2023-02-04T01:06:17;6.50;99.90
60473;DHT22;46318;52.716;6.444;2023-02-04T01:08:43;6.50;99.90
60473;DHT22;46318;52.716;6.444;2023-02-04T01:11:09;6.50;99.90
60473;DHT22;46318;52.716;6.444;2023-02-04T01:13:36;6.50;99.90
60473;DHT22;46318;52.716;6.444;2023-02-04T01:16:02;6.50;99.90
60473;DHT22;46318;52.716;6.444;2023-02-04T01:18:28;6.50;99.90
60473;DHT22;46318;52.716;6.444;2023-02-04T01:20:55;6.40;99.90
60473;DHT22;46318;52.716;6.444;2023-02-04T01:23:24;6.40;99.90
60473;DHT22;46318;52.716;6.444;2023-02-04T01:25:50;6.40;99.90
60473;DHT22;46318;52.716;6.444;2023-02-04T01:28:16;6.40;99.90
60473;DHT22;46318;52.716;6.444;2023-02-04T01:30:45;6.40;99.90
60473;DHT22;46318;52.716;6.444;2023-02-04T01:33:11;6.40;99.90
60473;DHT22;46318;52.716;6.444;2023-02-04T01:35:38;6.40;99.90
60473;DHT22;46318;52.716;6.444;2023-02-04T01:38:04;6.40;99.90
60473;DHT22;46318;52.716;6.444;2023-02-04T01:40:30;6.40;99.90
60473;DHT22;46318;52.716;6.444;2023-02-04T01:42:56;6.40;99.90
60473;DHT22;46318;52.716;6.444;2023-02-04T01:45:22;6.40;99.90
60473;DHT22;46318;52.716;6.444;2023-02-04T01:47:49;6.40;99.90
60473;DHT22;46318;52.716;6.444;2023-02-04T01:50:16;6.40;99.90
60473;DHT22;46318;52.716;6.444;2023-02-04T01:52:43;6.40;99.90
60473;DHT22;46318;52.716;6.444;2023-02-04T01:55:16;6.40;99.90
60473;DHT22;46318;52.716;6.444;2023-02-04T01:57:44;6.40;99.90
60473;DHT22;46318;52.716;6.444;2023-02-04T02:00:16;6.40;99.90
60473;DHT22;46318;52.716;6.444;2023-02-04T02:03:06;6.40;99.90
60473;DHT22;46318;52.716;6.444;2023-02-04T02:05:45;6.40;99.90
60473;DHT22;46318;52.716;6.444;2023-02-04T02:08:14;6.40;99.90
60473;DHT22;46318;52.716;6.444;2023-02-04T02:10:43;6.40;99.90
60473;DHT22;46318;52.716;6.444;2023-02-04T02:13:13;6.40;99.90
60473;DHT22;46318;52.716;6.444;2023-02-04T02:15:40;6.40;99.90
60473;DHT22;46318;52.716;6.444;2023-02-04T02:18:07;6.40;99.90
60473;DHT22;46318;52.716;6.444;2023-02-04T02:20:33;6.40;99.90
60473;DHT22;46318;52.716;6.444;2023-02-04T02:23:19;6.40;99.90
60473;DHT22;46318;52.716;6.444;2023-02-04T02:26:06;6.40;99.90
60473;DHT22;46318;52.716;6.444;2023-02-04T02:28:32;6.40;99.90
60473;DHT22;46318;52.716;6.444;2023-02-04T02:30:57;6.40;99.90
60473;DHT22;46318;52.716;6.444;2023-02-04T02:33:23;6.40;99.90
60473;DHT22;46318;52.716;6.444;2023-02-04T02:35:50;6.40;99.90
60473;DHT22;46318;52.716;6.444;2023-02-04T02:38:17;6.40;99.90
60473;DHT22;46318;52.716;6.444;2023-02-04T02:40:44;6.40;99.90
60473;DHT22;46318;52.716;6.444;2023-02-04T02:43:15;6.40;99.90
60473;DHT22;46318;52.716;6.444;2023-02-04T02:45:42;6.40;99.90
60473;DHT22;46318;52.716;6.444;2023-02-04T02:48:09;6.40;99.90
60473;DHT22;46318;52.716;6.444;2023-02-04T02:50:36;6.40;99.90
60473;DHT22;46318;52.716;6.444;2023-02-04T02:53:02;6.40;99.90
60473;DHT22;46318;52.716;6.444;2023-02-04T02:55:29;6.40;99.90
60473;DHT22;46318;52.716;6.444;2023-02-04T02:57:55;6.40;99.90
60473;DHT22;46318;52.716;6.444;2023-02-04T03:00:23;6.40;99.90
60473;DHT22;46318;52.716;6.444;2023-02-04T03:03:06;6.40;99.90
60473;DHT22;46318;52.716;6.444;2023-02-04T03:05:35;6.40;99.90
60473;DHT22;46318;52.716;6.444;2023-02-04T03:08:04;6.40;99.90
60473;DHT22;46318;52.716;6.444;2023-02-04T03:10:30;6.40;99.90
60473;DHT22;46318;52.716;6.444;2023-02-04T03:12:56;6.50;99.90
60473;DHT22;46318;52.716;6.444;2023-02-04T03:15:25;6.40;99.90
60473;DHT22;46318;52.716;6.444;2023-02-04T03:17:52;6.50;99.90
60473;DHT22;46318;52.716;6.444;2023-02-04T03:20:22;6.40;99.90
60473;DHT22;46318;52.716;6.444;2023-02-04T03:22:50;6.40;99.90
60473;DHT22;46318;52.716;6.444;2023-02-04T03:25:16;6.40;99.90
60473;DHT22;46318;52.716;6.444;2023-02-04T03:27:43;6.40;99.90
60473;DHT22;46318;52.716;6.444;2023-02-04T03:30:09;6.40;99.90
60473;DHT22;46318;52.716;6.444;2023-02-04T03:32:35;6.40;99.90
60473;DHT22;46318;52.716;6.444;2023-02-04T03:35:01;6.40;99.90
60473;DHT22;46318;52.716;6.444;2023-02-04T03:37:27;6.40;99.90
60473;DHT22;46318;52.716;6.444;2023-02-04T03:39:52;6.40;99.90
60473;DHT22;46318;52.716;6.444;2023-02-04T03:42:18;6.40;99.90
60473;DHT22;46318;52.716;6.444;2023-02-04T03:44:44;6.40;99.90
60473;DHT22;46318;52.716;6.444;2023-02-04T03:47:10;6.40;99.90
60473;DHT22;46318;52.716;6.444;2023-02-04T03:49:36;6.40;99.90
60473;DHT22;46318;52.716;6.444;2023-02-04T03:52:03;6.40;99.90
60473;DHT22;46318;52.716;6.444;2023-02-04T03:54:29;6.40;99.90
60473;DHT22;46318;52.716;6.444;2023-02-04T03:56:55;6.40;99.90
60473;DHT22;46318;52.716;6.444;2023-02-04T03:59:21;6.40;99.90
60473;DHT22;46318;52.716;6.444;2023-02-04T04:01:46;6.40;99.90
60473;DHT22;46318;52.716;6.444;2023-02-04T04:04:12;6.40;99.90
60473;DHT22;46318;52.716;6.444;2023-02-04T04:06:41;6.40;99.90
60473;DHT22;46318;52.716;6.444;2023-02-04T04:09:07;6.30;99.90
60473;DHT22;46318;52.716;6.444;2023-02-04T04:11:32;6.30;99.90
60473;DHT22;46318;52.716;6.444;2023-02-04T04:13:58;6.30;99.90
60473;DHT22;46318;52.716;6.444;2023-02-04T04:16:26;6.30;99.90
60473;DHT22;46318;52.716;6.444;2023-02-04T04:18:53;6.30;99.90
60473;DHT22;46318;52.716;6.444;2023-02-04T04:21:19;6.30;99.90
60473;DHT22;46318;52.716;6.444;2023-02-04T04:23:45;6.30;99.90
60473;DHT22;46318;52.716;6.444;2023-02-04T04:26:11;6.30;99.90
60473;DHT22;46318;52.716;6.444;2023-02-04T04:28:37;6.30;99.90
60473;DHT22;46318;52.716;6.444;2023-02-04T04:31:03;6.30;99.90
60473;DHT22;46318;52.716;6.444;2023-02-04T04:33:35;6.30;99.90
60473;DHT22;46318;52.716;6.444;2023-02-04T04:36:01;6.30;99.90
60473;DHT22;46318;52.716;6.444;2023-02-04T04:38:27;6.30;99.90
60473;DHT22;46318;52.716;6.444;2023-02-04T04:40:52;6.30;99.90
60473;DHT22;46318;52.716;6.444;2023-02-04T04:43:18;6.30;99.90
60473;DHT22;46318;52.716;6.444;2023-02-04T04:45:45;6.30;99.90
60473;DHT22;46318;52.716;6.444;2023-02-04T04:48:11;6.30;99.90
60473;DHT22;46318;52.716;6.444;2023-02-04T04:50:37;6.30;99.90
60473;DHT22;46318;52.716;6.444;2023-02-04T04:53:02;6.30;99.90
60473;DHT22;46318;52.716;6.444;2023-02-04T04:55:31;6.30;99.90
60473;DHT22;46318;52.716;6.444;2023-02-04T04:58:00;6.30;99.90
60473;DHT22;46318;52.716;6.444;2023-02-04T05:00:26;6.30;99.90
60473;DHT22;46318;52.716;6.444;2023-02-04T05:02:52;6.30;99.90
60473;DHT22;46318;52.716;6.444;2023-02-04T05:05:17;6.20;99.90
60473;DHT22;46318;52.716;6.444;2023-02-04T05:07:43;6.20;99.90
60473;DHT22;46318;52.716;6.444;2023-02-04T05:10:09;6.20;99.90
60473;DHT22;46318;52.716;6.444;2023-02-04T05:12:35;6.20;99.90
60473;DHT22;46318;52.716;6.444;2023-02-04T05:15:01;6.20;99.90
60473;DHT22;46318;52.716;6.444;2023-02-04T05:17:27;6.20;99.90
60473;DHT22;46318;52.716;6.444;2023-02-04T05:19:56;6.20;99.90
60473;DHT22;46318;52.716;6.444;2023-02-04T05:22:22;6.20;99.90
60473;DHT22;46318;52.716;6.444;2023-02-04T05:24:47;6.20;99.90
60473;DHT22;46318;52.716;6.444;2023-02-04T05:27:13;6.20;99.90
60473;DHT22;46318;52.716;6.444;2023-02-04T05:29:39;6.20;99.90
60473;DHT22;46318;52.716;6.444;2023-02-04T05:32:05;6.20;99.90
60473;DHT22;46318;52.716;6.444;2023-02-04T05:34:31;6.20;99.90
60473;DHT22;46318;52.716;6.444;2023-02-04T05:36:57;6.20;99.90
60473;DHT22;46318;52.716;6.444;2023-02-04T05:39:22;6.20;99.90
60473;DHT22;46318;52.716;6.444;2023-02-04T05:41:48;6.20;99.90
60473;DHT22;46318;52.716;6.444;2023-02-04T05:44:14;6.20;99.90
60473;DHT22;46318;52.716;6.444;2023-02-04T05:46:40;6.20;99.90
60473;DHT22;46318;52.716;6.444;2023-02-04T05:49:06;6.20;99.90
60473;DHT22;46318;52.716;6.444;2023-02-04T05:51:35;6.20;99.90
60473;DHT22;46318;52.716;6.444;2023-02-04T05:54:01;6.10;99.90
60473;DHT22;46318;52.716;6.444;2023-02-04T05:56:27;6.10;99.90
60473;DHT22;46318;52.716;6.444;2023-02-04T05:58:53;6.20;99.90
60473;DHT22;46318;52.716;6.444;2023-02-04T06:01:19;6.10;99.90
60473;DHT22;46318;52.716;6.444;2023-02-04T06:03:45;6.10;99.90
60473;DHT22;46318;52.716;6.444;2023-02-04T06:06:11;6.10;99.90
60473;DHT22;46318;52.716;6.444;2023-02-04T06:08:36;6.10;99.90
60473;DHT22;46318;52.716;6.444;2023-02-04T06:11:02;6.10;99.90
60473;DHT22;46318;52.716;6.444;2023-02-04T06:13:28;6.10;99.90
60473;DHT22;46318;52.716;6.444;2023-02-04T06:15:55;6.10;99.90
60473;DHT22;46318;52.716;6.444;2023-02-04T06:18:20;6.10;99.90
60473;DHT22;46318;52.716;6.444;2023-02-04T06:20:46;6.10;99.90
60473;DHT22;46318;52.716;6.444;2023-02-04T06:23:12;6.10;99.90
60473;DHT22;46318;52.716;6.444;2023-02-04T06:25:38;6.10;99.90
60473;DHT22;46318;52.716;6.444;2023-02-04T06:28:04;6.10;99.90
60473;DHT22;46318;52.716;6.444;2023-02-04T06:30:29;6.10;99.90
60473;DHT22;46318;52.716;6.444;2023-02-04T06:32:55;6.10;99.90
60473;DHT22;46318;52.716;6.444;2023-02-04T06:35:21;6.10;99.90
60473;DHT22;46318;52.716;6.444;2023-02-04T06:37:47;6.10;99.90
60473;DHT22;46318;52.716;6.444;2023-02-04T06:40:13;6.10;99.90
60473;DHT22;46318;52.716;6.444;2023-02-04T06:42:39;6.10;99.90
60473;DHT22;46318;52.716;6.444;2023-02-04T06:45:05;6.10;99.90
60473;DHT22;46318;52.716;6.444;2023-02-04T06:47:31;6.10;99.90
60473;DHT22;46318;52.716;6.444;2023-02-04T06:49:57;6.10;99.90
60473;DHT22;46318;52.716;6.444;2023-02-04T06:52:23;6.10;99.90
60473;DHT22;46318;52.716;6.444;2023-02-04T06:54:49;6.10;99.90
60473;DHT22;46318;52.716;6.444;2023-02-04T06:57:15;6.00;99.90
60473;DHT22;46318;52.716;6.444;2023-02-04T06:59:41;6.00;99.90
60473;DHT22;46318;52.716;6.444;2023-02-04T07:02:10;6.00;99.90
60473;DHT22;46318;52.716;6.444;2023-02-04T07:04:36;6.00;99.90
60473;DHT22;46318;52.716;6.444;2023-02-04T07:07:02;6.00;99.90
60473;DHT22;46318;52.716;6.444;2023-02-04T07:09:29;6.00;99.90
60473;DHT22;46318;52.716;6.444;2023-02-04T07:11:55;6.00;99.90
60473;DHT22;46318;52.716;6.444;2023-02-04T21:49:04;5.20;99.90
60473;DHT22;46318;52.716;6.444;2023-02-04T21:51:30;5.20;99.90
60473;DHT22;46318;52.716;6.444;2023-02-04T21:53:56;5.20;99.90
60473;DHT22;46318;52.716;6.444;2023-02-04T21:56:22;5.20;99.90
60473;DHT22;46318;52.716;6.444;2023-02-04T21:58:48;5.20;99.90
60473;DHT22;46318;52.716;6.444;2023-02-04T22:01:13;5.20;99.90
60473;DHT22;46318;52.716;6.444;2023-02-04T22:03:39;5.20;99.90
60473;DHT22;46318;52.716;6.444;2023-02-04T22:06:05;5.20;99.90
60473;DHT22;46318;52.716;6.444;2023-02-04T22:08:31;5.20;99.90
60473;DHT22;46318;52.716;6.444;2023-02-04T22:10:57;5.20;99.90
60473;DHT22;46318;52.716;6.444;2023-02-04T22:13:23;5.20;99.90
60473;DHT22;46318;52.716;6.444;2023-02-04T22:16:08;5.20;99.90
60473;DHT22;46318;52.716;6.444;2023-02-04T22:18:34;5.20;99.90
60473;DHT22;46318;52.716;6.444;2023-02-04T22:21:00;5.20;99.90
60473;DHT22;46318;52.716;6.444;2023-02-04T22:23:26;5.10;99.90
60473;DHT22;46318;52.716;6.444;2023-02-04T22:25:51;5.10;99.90
60473;DHT22;46318;52.716;6.444;2023-02-04T22:28:17;5.20;99.90
60473;DHT22;46318;52.716;6.444;2023-02-04T22:30:43;5.10;99.90
60473;DHT22;46318;52.716;6.444;2023-02-04T22:33:09;5.10;99.90
60473;DHT22;46318;52.716;6.444;2023-02-04T22:35:36;5.10;99.90
60473;DHT22;46318;52.716;6.444;2023-02-04T22:38:02;5.10;99.90
60473;DHT22;46318;52.716;6.444;2023-02-04T22:40:28;5.10;99.90
60473;DHT22;46318;52.716;6.444;2023-02-04T22:42:54;5.10;99.90
60473;DHT22;46318;52.716;6.444;2023-02-04T22:45:19;5.10;99.90
60473;DHT22;46318;52.716;6.444;2023-02-04T22:47:45;5.10;99.90
60473;DHT22;46318;52.716;6.444;2023-02-04T22:50:11;5.10;99.90
60473;DHT22;46318;52.716;6.444;2023-02-04T22:52:37;5.10;99.90
60473;DHT22;46318;52.716;6.444;2023-02-04T22:55:03;5.10;99.90
60473;DHT22;46318;52.716;6.444;2023-02-04T22:57:29;5.10;99.90
60473;DHT22;46318;52.716;6.444;2023-02-04T22:59:55;5.10;99.90
60473;DHT22;46318;52.716;6.444;2023-02-04T23:02:21;5.10;99.90
60473;DHT22;46318;52.716;6.444;2023-02-04T23:04:47;5.00;99.90
60473;DHT22;46318;52.716;6.444;2023-02-04T23:07:12;5.10;99.90
60473;DHT22;46318;52.716;6.444;2023-02-04T23:09:38;5.10;99.90
60473;DHT22;46318;52.716;6.444;2023-02-04T23:12:04;5.10;99.90
60473;DHT22;46318;52.716;6.444;2023-02-04T23:14:46;5.00;99.90
60473;DHT22;46318;52.716;6.444;2023-02-04T23:17:15;5.00;99.90
60473;DHT22;46318;52.716;6.444;2023-02-04T23:19:41;5.10;99.90
60473;DHT22;46318;52.716;6.444;2023-02-04T23:22:09;5.10;99.90
60473;DHT22;46318;52.716;6.444;2023-02-04T23:24:36;5.00;99.90
60473;DHT22;46318;52.716;6.444;2023-02-04T23:27:03;5.00;99.90
60473;DHT22;46318;52.716;6.444;2023-02-04T23:29:30;5.00;99.90
60473;DHT22;46318;52.716;6.444;2023-02-04T23:31:57;5.00;99.90
60473;DHT22;46318;52.716;6.444;2023-02-04T23:34:23;5.00;99.90
60473;DHT22;46318;52.716;6.444;2023-02-04T23:36:50;5.00;99.90
60473;DHT22;46318;52.716;6.444;2023-02-04T23:39:17;5.00;99.90
60473;DHT22;46318;52.716;6.444;2023-02-04T23:41:43;5.00;99.90
60473;DHT22;46318;52.716;6.444;2023-02-04T23:44:09;5.00;99.90
60473;DHT22;46318;52.716;6.444;2023-02-04T23:46:35;5.00;99.90
60473;DHT22;46318;52.716;6.444;2023-02-04T23:49:01;5.00;99.90
60473;DHT22;46318;52.716;6.444;2023-02-04T23:51:27;5.00;99.90
60473;DHT22;46318;52.716;6.444;2023-02-04T23:53:53;5.00;99.90
60473;DHT22;46318;52.716;6.444;2023-02-04T23:56:18;5.00;99.90
60473;DHT22;46318;52.716;6.444;2023-02-04T23:58:44;5.00;99.90
